createdAt,value
2023-01-15T00:00:03.279Z,9.00
2023-01-15T00:02:34.666Z,7.78
2023-01-15T00:05:03.526Z,7.57
2023-01-15T00:07:31.954Z,7.65
2023-01-15T00:09:59.836Z,6.93
2023-01-15T00:12:27.698Z,8.48
2023-01-15T00:14:58.045Z,6.45
2023-01-15T00:17:26.269Z,7.10
2023-01-15T00:19:55.535Z,7.18
2023-01-15T00:22:23.424Z,7.60
2023-01-15T00:25:08.673Z,7.15
2023-01-15T00:27:44.201Z,9.50
2023-01-15T00:30:13.496Z,6.93
2023-01-15T00:32:41.412Z,6.65
2023-01-15T00:35:12.728Z,7.32
2023-01-15T00:37:40.623Z,9.52
2023-01-15T00:40:09.711Z,8.45
2023-01-15T00:42:39.062Z,6.07
2023-01-15T00:45:10.229Z,7.38
2023-01-15T00:47:38.695Z,6.68
2023-01-15T00:50:07.345Z,8.07
2023-01-15T00:52:36.691Z,6.30
2023-01-15T00:55:04.922Z,6.82
2023-01-15T00:57:32.812Z,6.97
2023-01-15T01:00:00.993Z,6.35
2023-01-15T01:02:28.992Z,6.70
2023-01-15T01:04:56.906Z,7.13
2023-01-15T01:07:24.862Z,5.75
2023-01-15T01:09:54.128Z,7.40
2023-01-15T01:12:23.633Z,5.88
2023-01-15T01:14:51.481Z,6.55
2023-01-15T01:17:19.359Z,6.15
2023-01-15T01:19:47.227Z,7.68
2023-01-15T01:22:15.106Z,5.75
2023-01-15T01:24:43.001Z,7.65
2023-01-15T01:27:12.287Z,6.10
2023-01-15T01:29:40.206Z,6.00
2023-01-15T01:32:08.156Z,7.20
2023-01-15T01:34:36.125Z,5.82
2023-01-15T01:37:03.984Z,7.18
2023-01-15T01:39:33.938Z,7.00
2023-01-15T01:42:01.802Z,6.40
2023-01-15T01:45:00.725Z,7.75
2023-01-15T01:47:28.600Z,7.15
2023-01-15T01:49:59.037Z,7.22
2023-01-15T01:52:27.957Z,6.68
2023-01-15T01:54:55.799Z,6.35
2023-01-15T01:57:23.651Z,8.18
2023-01-15T01:59:51.516Z,5.90
2023-01-15T02:02:21.742Z,6.70
2023-01-15T02:04:49.741Z,5.93
2023-01-15T02:07:17.626Z,5.53
2023-01-15T02:09:45.911Z,6.05
2023-01-15T02:12:15.667Z,6.30
2023-01-15T02:14:45.066Z,5.75
2023-01-15T02:17:15.295Z,6.32
2023-01-15T02:19:48.686Z,8.05
2023-01-15T02:22:21.013Z,8.15
2023-01-15T02:24:54.218Z,6.05
2023-01-15T02:27:24.928Z,6.43
2023-01-15T02:29:56.552Z,5.78
2023-01-15T02:32:30.145Z,6.75
2023-01-15T02:35:00.752Z,5.40
2023-01-15T02:37:31.355Z,5.55
2023-01-15T02:40:00.506Z,5.38
2023-01-15T02:42:30.321Z,6.80
2023-01-15T02:44:59.594Z,5.70
2023-01-15T02:47:28.316Z,5.20
2023-01-15T02:49:59.322Z,5.93
2023-01-15T02:52:29.285Z,6.45
2023-01-15T02:54:59.154Z,5.60
2023-01-15T02:57:31.529Z,6.18
2023-01-15T02:59:59.921Z,5.80
2023-01-15T03:02:29.957Z,5.65
2023-01-15T03:05:01.068Z,5.32
2023-01-15T03:07:31.993Z,6.00
2023-01-15T03:10:00.288Z,5.07
2023-01-15T03:12:30.809Z,5.07
2023-01-15T03:15:04.954Z,5.45
2023-01-15T03:17:36.442Z,5.20
2023-01-15T03:20:07.640Z,4.82
2023-01-15T03:22:37.003Z,5.78
2023-01-15T03:25:05.876Z,4.85
2023-01-15T03:27:41.873Z,5.15
2023-01-15T03:30:12.823Z,5.40
2023-01-15T03:32:40.830Z,4.97
2023-01-15T03:35:11.149Z,5.68
2023-01-15T03:37:44.827Z,5.00
2023-01-15T03:40:13.621Z,6.13
2023-01-15T03:42:47.891Z,6.07
2023-01-15T03:45:18.952Z,8.82
2023-01-15T03:47:51.511Z,5.05
2023-01-15T03:50:23.768Z,4.88
2023-01-15T03:52:54.742Z,5.30
2023-01-15T03:55:24.488Z,5.55
2023-01-15T03:58:08.539Z,4.32
2023-01-15T04:00:41.795Z,5.32
2023-01-15T04:03:10.102Z,4.63
2023-01-15T04:05:38.309Z,5.47
2023-01-15T04:08:07.118Z,4.80
2023-01-15T04:10:36.427Z,5.68
2023-01-15T04:13:07.424Z,5.05
2023-01-15T04:15:36.268Z,5.78
2023-01-15T04:18:04.272Z,5.05
2023-01-15T04:20:32.310Z,4.75
2023-01-15T04:23:00.547Z,5.97
2023-01-15T04:25:28.429Z,5.10
2023-01-15T04:27:56.344Z,5.20
2023-01-15T04:30:25.589Z,4.93
2023-01-15T04:32:53.600Z,3.92
2023-01-15T04:35:21.465Z,4.35
2023-01-15T04:37:49.384Z,4.55
2023-01-15T04:40:31.468Z,4.65
2023-01-15T04:43:16.923Z,5.35
2023-01-15T04:45:46.170Z,3.97
2023-01-15T04:48:14.141Z,5.45
2023-01-15T04:50:42.092Z,4.10
2023-01-15T04:53:09.964Z,5.38
2023-01-15T04:55:37.835Z,4.25
2023-01-15T04:58:05.737Z,3.78
2023-01-15T05:00:33.586Z,5.65
2023-01-15T05:03:02.779Z,3.75
2023-01-15T05:05:32.550Z,4.10
2023-01-15T05:08:00.377Z,4.50
2023-01-15T05:10:28.280Z,6.65
2023-01-15T05:12:56.179Z,4.15
2023-01-15T05:15:24.022Z,4.25
2023-01-15T05:17:51.853Z,4.07
2023-01-15T05:20:21.140Z,4.20
2023-01-15T05:22:49.040Z,7.93
2023-01-15T05:25:17.007Z,4.20
2023-01-15T05:27:44.871Z,4.35
2023-01-15T05:30:14.394Z,3.80
2023-01-15T05:32:42.303Z,4.28
2023-01-15T05:35:10.936Z,4.63
2023-01-15T05:37:40.120Z,3.75
2023-01-15T05:40:09.461Z,4.97
2023-01-15T05:42:37.314Z,4.68
2023-01-15T05:45:05.665Z,3.97
2023-01-15T05:47:35.746Z,4.43
2023-01-15T05:50:03.664Z,4.13
2023-01-15T05:52:31.572Z,4.25
2023-01-15T05:55:00.772Z,5.97
2023-01-15T05:57:28.662Z,4.68
2023-01-15T05:59:56.700Z,3.55
2023-01-15T06:02:24.579Z,4.28
2023-01-15T06:04:52.493Z,4.43
2023-01-15T06:07:20.380Z,3.50
2023-01-15T06:09:48.286Z,5.68
2023-01-15T06:12:17.528Z,3.75
2023-01-15T06:14:45.360Z,4.93
2023-01-15T06:17:14.956Z,4.13
2023-01-15T06:19:42.839Z,4.45
2023-01-15T06:22:11.107Z,5.88
2023-01-15T06:24:39.126Z,3.72
2023-01-15T06:27:06.973Z,4.03
2023-01-15T06:29:36.204Z,3.95
2023-01-15T06:32:04.090Z,3.67
2023-01-15T06:34:32.155Z,5.65
2023-01-15T06:37:00.029Z,3.75
2023-01-15T06:39:28.083Z,5.28
2023-01-15T06:42:13.441Z,7.07
2023-01-15T06:45:11.643Z,4.25
2023-01-15T06:47:39.587Z,4.90
2023-01-15T06:50:08.037Z,3.25
2023-01-15T06:52:35.892Z,3.75
2023-01-15T06:55:03.778Z,3.60
2023-01-15T06:57:31.649Z,3.88
2023-01-15T07:00:00.864Z,3.90
2023-01-15T07:02:28.720Z,3.70
2023-01-15T07:04:56.621Z,3.42
2023-01-15T07:07:24.624Z,3.53
2023-01-15T07:09:52.536Z,4.07
2023-01-15T07:12:20.425Z,4.45
2023-01-15T07:14:48.371Z,3.85
2023-01-15T07:17:17.694Z,3.72
2023-01-15T07:19:45.808Z,3.25
2023-01-15T07:22:13.678Z,4.53
2023-01-15T07:24:41.592Z,3.25
2023-01-15T07:27:09.529Z,3.50
2023-01-15T07:29:37.421Z,3.58
2023-01-15T07:32:05.860Z,3.55
2023-01-15T07:34:35.115Z,3.05
2023-01-15T07:37:02.995Z,3.17
2023-01-15T07:39:31.843Z,2.85
2023-01-15T07:42:17.157Z,6.43
2023-01-15T07:45:03.531Z,4.50
2023-01-15T07:47:48.876Z,2.88
2023-01-15T07:50:19.102Z,3.05
2023-01-15T07:52:47.033Z,4.15
2023-01-15T07:55:15.000Z,2.75
2023-01-15T07:57:42.972Z,3.33
2023-01-15T08:00:12.816Z,3.47
2023-01-15T08:02:41.040Z,4.32
2023-01-15T08:05:09.827Z,2.67
2023-01-15T08:07:39.727Z,3.05
2023-01-15T08:10:08.805Z,3.13
2023-01-15T08:12:57.132Z,10.52
2023-01-15T08:15:25.438Z,4.38
2023-01-15T08:17:53.519Z,4.68
2023-01-15T08:20:22.600Z,6.45
2023-01-15T08:22:51.889Z,2.92
2023-01-15T08:25:20.716Z,3.42
2023-01-15T08:27:48.834Z,2.92
2023-01-15T08:30:18.034Z,3.38
2023-01-15T08:32:45.923Z,4.25
2023-01-15T08:35:13.974Z,2.40
2023-01-15T08:37:42.058Z,4.88
2023-01-15T08:40:12.902Z,3.83
2023-01-15T08:42:40.862Z,3.10
2023-01-15T08:45:09.938Z,3.75
2023-01-15T08:47:38.173Z,2.80
2023-01-15T08:50:07.531Z,3.70
2023-01-15T08:52:35.391Z,3.10
2023-01-15T08:55:03.336Z,4.35
2023-01-15T08:57:32.605Z,4.65
2023-01-15T09:00:00.533Z,7.95
2023-01-15T09:02:29.778Z,10.13
2023-01-15T09:04:57.685Z,3.40
2023-01-15T09:07:25.832Z,6.93
2023-01-15T09:09:54.226Z,12.10
2023-01-15T09:12:24.813Z,7.75
2023-01-15T09:14:57.911Z,13.40
2023-01-15T09:17:30.401Z,14.32
2023-01-15T09:19:58.284Z,14.85
2023-01-15T09:22:29.942Z,23.42
2023-01-15T09:24:57.982Z,25.58
2023-01-15T09:27:25.983Z,21.35
2023-01-15T09:29:55.296Z,23.45
2023-01-15T09:32:23.275Z,20.27
2023-01-15T09:34:51.266Z,24.88
2023-01-15T09:37:19.169Z,26.85
2023-01-15T09:39:47.140Z,19.42
2023-01-15T09:42:26.921Z,19.83
2023-01-15T09:45:10.801Z,21.08
2023-01-15T09:47:40.479Z,26.02
2023-01-15T09:50:22.506Z,16.80
2023-01-15T09:53:14.152Z,20.15
2023-01-15T09:55:45.429Z,19.50
2023-01-15T09:58:13.359Z,13.10
2023-01-15T10:00:44.817Z,16.05
2023-01-15T10:03:19.562Z,15.50
2023-01-15T10:05:49.331Z,13.55
2023-01-15T10:08:18.897Z,18.55
2023-01-15T10:10:48.136Z,13.23
2023-01-15T10:13:20.336Z,14.90
2023-01-15T10:15:49.598Z,11.65
2023-01-15T10:18:18.899Z,12.80
2023-01-15T10:21:08.390Z,15.15
2023-01-15T10:23:39.054Z,10.55
2023-01-15T10:26:18.800Z,12.40
2023-01-15T10:28:58.983Z,11.73
2023-01-15T10:31:47.269Z,7.75
2023-01-15T10:34:32.024Z,11.02
2023-01-15T10:37:01.089Z,8.75
2023-01-15T10:39:31.223Z,10.05
2023-01-15T10:42:04.475Z,6.97
2023-01-15T10:44:39.782Z,9.15
2023-01-15T10:47:13.565Z,11.77
2023-01-15T10:49:42.487Z,13.95
2023-01-15T10:52:18.454Z,6.68
2023-01-15T10:54:47.751Z,11.85
2023-01-15T10:57:18.604Z,9.75
2023-01-15T10:59:48.980Z,10.15
2023-01-15T11:02:23.745Z,5.82
2023-01-15T11:04:51.715Z,8.13
2023-01-15T11:07:19.581Z,10.35
2023-01-15T11:09:47.549Z,8.85
2023-01-15T11:12:38.764Z,8.63
2023-01-15T11:15:33.608Z,7.65
2023-01-15T11:18:21.027Z,6.22
2023-01-15T11:20:49.240Z,10.43
2023-01-15T11:23:18.132Z,7.55
2023-01-15T11:25:49.738Z,6.80
2023-01-15T11:28:18.540Z,7.70
2023-01-15T11:30:54.383Z,7.22
2023-01-15T11:33:26.336Z,7.93
2023-01-15T11:35:58.148Z,10.35
2023-01-15T11:38:26.400Z,11.32
2023-01-15T11:40:54.830Z,6.93
2023-01-15T11:43:41.465Z,5.95
2023-01-15T11:46:41.956Z,6.50
2023-01-15T11:49:29.154Z,5.65
2023-01-15T11:51:58.024Z,12.43
2023-01-15T11:54:26.306Z,7.80
2023-01-15T11:56:54.246Z,12.55
2023-01-15T11:59:22.157Z,9.30
2023-01-15T12:01:54.796Z,10.65
2023-01-15T12:04:30.295Z,8.82
2023-01-15T12:06:58.314Z,7.47
2023-01-15T12:09:29.642Z,7.43
2023-01-15T12:12:04.018Z,13.60
2023-01-15T12:14:46.928Z,9.23
2023-01-15T12:17:21.813Z,11.93
2023-01-15T12:19:53.397Z,10.48
2023-01-15T12:22:28.040Z,8.13
2023-01-15T12:25:08.528Z,14.50
2023-01-15T12:27:53.858Z,10.98
2023-01-15T12:30:26.171Z,10.23
2023-01-15T12:32:56.915Z,20.20
2023-01-15T12:35:29.581Z,14.48
2023-01-15T12:37:59.289Z,18.98
2023-01-15T12:40:29.308Z,13.00
2023-01-15T12:43:14.637Z,14.60
2023-01-15T12:45:44.043Z,18.83
2023-01-15T12:48:14.967Z,15.88
2023-01-15T12:50:45.758Z,15.00
2023-01-15T12:53:16.879Z,13.23
2023-01-15T12:55:48.949Z,16.55
2023-01-15T12:58:24.867Z,16.73
2023-01-15T13:00:52.965Z,15.93
2023-01-15T13:03:24.487Z,13.50
2023-01-15T13:05:55.854Z,15.82
2023-01-15T13:08:26.719Z,11.68
2023-01-15T13:10:55.123Z,15.07
2023-01-15T13:13:24.620Z,16.23
2023-01-15T13:16:13.700Z,15.55
2023-01-15T13:18:48.394Z,14.77
2023-01-15T13:21:18.051Z,14.85
2023-01-15T13:23:54.631Z,22.60
2023-01-15T13:26:35.634Z,13.00
2023-01-15T13:29:07.337Z,17.00
2023-01-15T13:31:55.848Z,26.95
2023-01-15T13:34:27.845Z,19.98
2023-01-15T13:36:58.537Z,23.98
2023-01-15T13:39:28.259Z,39.35
2023-01-15T13:42:13.897Z,22.58
2023-01-15T13:44:46.951Z,27.15
2023-01-15T13:47:18.676Z,36.30
2023-01-15T13:49:48.839Z,28.25
2023-01-15T13:52:24.809Z,28.05
2023-01-15T13:54:52.746Z,28.35
2023-01-15T13:57:25.605Z,23.83
2023-01-15T13:59:53.483Z,24.77
2023-01-15T14:02:31.229Z,29.63
2023-01-15T14:04:59.147Z,24.17
2023-01-15T14:07:35.399Z,21.25
2023-01-15T14:10:11.205Z,18.98
2023-01-15T14:12:44.350Z,16.55
2023-01-15T14:15:38.054Z,15.98
2023-01-15T14:18:24.603Z,18.27
2023-01-15T14:20:59.119Z,15.05
2023-01-15T14:23:37.474Z,16.88
2023-01-15T14:26:10.813Z,14.75
2023-01-15T14:28:52.744Z,15.15
2023-01-15T14:31:38.943Z,12.02
2023-01-15T14:34:20.439Z,17.13
2023-01-15T14:36:52.284Z,18.98
2023-01-15T14:39:30.515Z,16.58
2023-01-15T14:42:19.365Z,14.82
2023-01-15T14:44:47.331Z,10.57
2023-01-15T14:47:24.455Z,17.92
2023-01-15T14:50:01.439Z,20.85
2023-01-15T14:52:29.449Z,12.43
2023-01-15T14:54:58.665Z,13.13
2023-01-15T14:57:26.535Z,14.27
2023-01-15T14:59:55.475Z,10.48
2023-01-15T15:02:25.393Z,9.27
2023-01-15T15:04:54.461Z,10.18
2023-01-15T15:07:24.433Z,8.43
2023-01-15T15:09:56.157Z,16.30
2023-01-15T15:12:32.969Z,13.55
2023-01-15T15:15:02.732Z,13.18
2023-01-15T15:17:40.583Z,12.10
2023-01-15T15:21:01.389Z,15.52
2023-01-15T15:23:30.673Z,10.68
2023-01-15T15:25:59.507Z,10.27
2023-01-15T15:28:28.967Z,11.02
2023-01-15T15:31:00.374Z,14.85
2023-01-15T15:33:29.428Z,10.18
2023-01-15T15:35:58.207Z,11.48
2023-01-15T15:38:26.427Z,10.48
2023-01-15T15:40:55.464Z,13.13
2023-01-15T15:43:44.084Z,12.98
2023-01-15T15:46:43.480Z,11.75
2023-01-15T15:49:11.407Z,10.32
2023-01-15T15:51:40.936Z,8.93
2023-01-15T15:54:13.986Z,12.63
2023-01-15T15:56:42.708Z,7.57
2023-01-15T15:59:15.842Z,10.73
2023-01-15T16:01:45.342Z,6.80
2023-01-15T16:04:17.625Z,10.27
2023-01-15T16:06:45.502Z,9.98
2023-01-15T16:09:13.444Z,10.43
2023-01-15T16:11:41.353Z,9.57
2023-01-15T16:14:12.410Z,8.82
2023-01-15T16:16:40.357Z,12.85
2023-01-15T16:19:13.388Z,9.88
2023-01-15T16:21:41.822Z,9.60
2023-01-15T16:24:11.754Z,11.02
2023-01-15T16:26:41.626Z,10.80
2023-01-15T16:29:18.072Z,8.98
2023-01-15T16:31:46.045Z,8.60
2023-01-15T16:34:17.268Z,7.47
2023-01-15T16:36:45.624Z,8.55
2023-01-15T16:39:19.231Z,9.07
2023-01-15T16:41:47.188Z,11.65
2023-01-15T16:44:26.217Z,6.30
2023-01-15T16:46:55.000Z,11.00
2023-01-15T16:49:28.380Z,6.40
2023-01-15T16:51:57.343Z,7.70
2023-01-15T16:54:44.877Z,12.30
2023-01-15T16:57:27.804Z,9.88
2023-01-15T16:59:57.327Z,8.05
2023-01-15T17:02:29.821Z,7.57
2023-01-15T17:04:59.096Z,11.43
2023-01-15T17:07:29.261Z,7.30
2023-01-15T17:09:58.978Z,8.27
2023-01-15T17:12:28.659Z,6.57
2023-01-15T17:14:59.420Z,8.05
2023-01-15T17:17:28.778Z,8.85
2023-01-15T17:19:57.149Z,10.85
2023-01-15T17:22:28.165Z,7.28
2023-01-15T17:24:56.870Z,7.35
2023-01-15T17:27:24.947Z,6.40
2023-01-15T17:29:52.882Z,9.32
2023-01-15T17:32:23.884Z,7.32
2023-01-15T17:34:51.832Z,12.85
2023-01-15T17:37:19.790Z,10.55
2023-01-15T17:39:48.986Z,5.65
2023-01-15T17:42:18.037Z,9.27
2023-01-15T17:44:46.038Z,8.75
2023-01-15T17:47:14.065Z,6.65
2023-01-15T17:49:41.932Z,5.97
2023-01-15T17:52:13.527Z,8.48
2023-01-15T17:54:59.257Z,7.57
2023-01-15T17:57:46.086Z,7.82
2023-01-15T18:00:32.864Z,8.30
2023-01-15T18:03:18.521Z,7.72
2023-01-15T18:05:46.750Z,6.20
2023-01-15T18:08:15.464Z,7.72
2023-01-15T18:10:43.350Z,7.15
2023-01-15T18:13:12.741Z,7.25
2023-01-15T18:15:41.440Z,6.53
2023-01-15T18:18:11.202Z,7.78
2023-01-15T18:20:39.279Z,6.03
2023-01-15T18:23:07.301Z,6.82
2023-01-15T18:25:35.604Z,9.15
2023-01-15T18:28:03.557Z,9.57
2023-01-15T18:30:32.804Z,8.98
2023-01-15T18:33:02.702Z,7.85
2023-01-15T18:35:30.774Z,8.05
2023-01-15T18:37:58.877Z,7.60
2023-01-15T18:40:30.064Z,7.28
2023-01-15T18:43:24.023Z,9.07
2023-01-15T18:46:10.940Z,8.82
2023-01-15T18:48:38.810Z,6.40
2023-01-15T18:51:10.404Z,7.43
2023-01-15T18:53:38.350Z,6.95
2023-01-15T18:56:07.181Z,7.82
2023-01-15T18:58:35.124Z,6.28
2023-01-15T19:01:09.023Z,9.25
2023-01-15T19:03:37.012Z,5.47
2023-01-15T19:06:10.008Z,6.20
2023-01-15T19:08:38.281Z,7.75
2023-01-15T19:11:12.491Z,6.18
2023-01-15T19:13:40.428Z,5.70
2023-01-15T19:16:27.702Z,7.78
2023-01-15T19:18:56.045Z,7.15
2023-01-15T19:21:24.939Z,7.63
2023-01-15T19:23:53.423Z,10.05
2023-01-15T19:26:21.324Z,5.57
2023-01-15T19:28:49.371Z,6.40
2023-01-15T19:31:37.151Z,4.78
2023-01-15T19:34:32.252Z,7.55
2023-01-15T19:36:57.667Z,8.52
2023-01-15T19:39:26.055Z,14.05
2023-01-15T19:42:11.389Z,5.40
2023-01-15T19:44:57.168Z,5.57
2023-01-15T19:47:45.610Z,6.95
2023-01-15T19:50:20.069Z,7.45
2023-01-15T19:52:48.353Z,6.45
2023-01-15T19:55:17.507Z,6.60
2023-01-15T19:57:47.650Z,5.85
2023-01-15T20:00:17.680Z,6.93
2023-01-15T20:02:47.525Z,6.10
2023-01-15T20:05:15.707Z,6.18
2023-01-15T20:07:43.776Z,6.70
2023-01-15T20:10:13.331Z,5.28
2023-01-15T20:12:55.382Z,7.38
2023-01-15T20:15:23.286Z,6.43
2023-01-15T20:17:52.509Z,7.35
2023-01-15T20:20:20.604Z,13.07
2023-01-15T20:22:48.491Z,17.08
2023-01-15T20:25:16.573Z,16.40
2023-01-15T20:27:44.663Z,15.98
2023-01-15T20:30:15.468Z,15.15
2023-01-15T20:32:45.839Z,17.20
2023-01-15T20:35:16.059Z,14.75
2023-01-15T20:37:44.104Z,15.35
2023-01-15T20:40:13.149Z,11.38
2023-01-15T20:42:58.749Z,17.15
2023-01-15T20:45:26.955Z,13.60
2023-01-15T20:48:13.095Z,16.40
2023-01-15T20:50:43.107Z,13.45
2023-01-15T20:53:11.372Z,14.27
2023-01-15T20:55:54.794Z,15.50
2023-01-15T20:58:25.365Z,18.13
2023-01-15T21:00:53.459Z,18.70
2023-01-15T21:03:21.551Z,10.18
2023-01-15T21:05:50.827Z,11.13
2023-01-15T21:08:20.984Z,12.85
2023-01-15T21:10:52.417Z,12.30
2023-01-15T21:13:21.246Z,20.83
2023-01-15T21:15:56.782Z,12.98
2023-01-15T21:18:25.065Z,16.73
2023-01-15T21:20:54.400Z,18.10
2023-01-15T21:23:22.299Z,10.73
2023-01-15T21:25:50.271Z,13.30
2023-01-15T21:28:18.147Z,15.80
2023-01-15T21:30:46.050Z,11.32
2023-01-15T21:33:14.749Z,16.00
2023-01-15T21:35:42.659Z,16.63
2023-01-15T21:38:11.915Z,11.95
2023-01-15T21:40:39.966Z,11.57
2023-01-15T21:43:25.407Z,12.02
2023-01-15T21:45:53.303Z,11.18
2023-01-15T21:48:21.239Z,9.43
2023-01-15T21:50:49.167Z,8.98
2023-01-15T21:53:18.377Z,10.60
2023-01-15T21:55:49.743Z,8.40
2023-01-15T21:58:17.759Z,11.40
2023-01-15T22:00:45.642Z,11.70
2023-01-15T22:03:17.219Z,12.75
2023-01-15T22:05:45.187Z,14.32
2023-01-15T22:08:13.074Z,11.15
2023-01-15T22:10:42.337Z,11.35
2023-01-15T22:13:10.263Z,12.07
2023-01-15T22:15:38.204Z,8.70
2023-01-15T22:18:06.333Z,6.30
2023-01-15T22:20:34.257Z,8.52
2023-01-15T22:23:02.241Z,6.95
2023-01-15T22:25:30.137Z,7.00
2023-01-15T22:27:59.521Z,9.68
2023-01-15T22:30:27.510Z,9.93
2023-01-15T22:32:55.446Z,10.38
2023-01-15T22:35:23.598Z,7.68
2023-01-15T22:37:51.476Z,6.63
2023-01-15T22:40:19.662Z,5.97
2023-01-15T22:42:47.560Z,7.10
2023-01-15T22:45:16.953Z,7.40
2023-01-15T22:47:44.868Z,8.13
2023-01-15T22:50:13.104Z,9.45
2023-01-15T22:52:41.116Z,6.63
2023-01-15T22:55:09.894Z,7.28
2023-01-15T22:57:37.853Z,8.27
2023-01-15T23:00:07.053Z,13.95
2023-01-15T23:02:53.810Z,7.78
2023-01-15T23:05:21.695Z,8.00
2023-01-15T23:07:50.119Z,7.88
2023-01-15T23:10:18.106Z,6.72
2023-01-15T23:12:46.011Z,6.55
2023-01-15T23:15:15.925Z,6.57
2023-01-15T23:17:45.232Z,6.80
2023-01-15T23:20:13.745Z,6.60
2023-01-15T23:22:41.634Z,6.22
2023-01-15T23:25:10.023Z,6.40
2023-01-15T23:27:37.935Z,7.15
2023-01-15T23:30:06.818Z,6.25
2023-01-15T23:32:34.690Z,5.07
2023-01-15T23:35:03.963Z,7.50
2023-01-15T23:37:31.878Z,6.72
2023-01-15T23:39:59.790Z,5.22
2023-01-15T23:42:45.102Z,6.63
2023-01-15T23:45:30.658Z,5.75
2023-01-15T23:47:58.557Z,6.72
2023-01-15T23:50:27.851Z,6.63
2023-01-15T23:52:55.762Z,7.15
2023-01-15T23:55:23.627Z,6.57
2023-01-15T23:57:51.462Z,5.88
